sensor_id;sensor_type;location;lat;lon;timestamp;P1;durP1;ratioP1;P2;durP2;ratioP2
35891;SDS011;21993;42.672;23.296;2023-06-04T00:01:12;5.73;;;4.73;;
35891;SDS011;21993;42.672;23.296;2023-06-04T00:03:39;4.90;;;4.40;;
35891;SDS011;21993;42.672;23.296;2023-06-04T00:06:04;6.40;;;4.47;;
35891;SDS011;21993;42.672;23.296;2023-06-04T00:08:30;6.47;;;4.60;;
35891;SDS011;21993;42.672;23.296;2023-06-04T00:10:55;6.27;;;4.93;;
35891;SDS011;21993;42.672;23.296;2023-06-04T00:13:21;5.13;;;4.63;;
35891;SDS011;21993;42.672;23.296;2023-06-04T00:15:46;8.53;;;5.03;;
35891;SDS011;21993;42.672;23.296;2023-06-04T00:18:11;5.60;;;5.00;;
35891;SDS011;21993;42.672;23.296;2023-06-04T00:20:38;7.23;;;5.07;;
35891;SDS011;21993;42.672;23.296;2023-06-04T00:23:04;6.63;;;4.70;;
35891;SDS011;21993;42.672;23.296;2023-06-04T00:25:29;5.67;;;4.63;;
35891;SDS011;21993;42.672;23.296;2023-06-04T00:27:54;7.23;;;4.47;;
35891;SDS011;21993;42.672;23.296;2023-06-04T00:30:20;8.63;;;4.83;;
35891;SDS011;21993;42.672;23.296;2023-06-04T00:32:45;4.37;;;3.93;;
35891;SDS011;21993;42.672;23.296;2023-06-04T00:35:12;4.40;;;4.00;;
35891;SDS011;21993;42.672;23.296;2023-06-04T00:37:37;5.27;;;4.10;;
35891;SDS011;21993;42.672;23.296;2023-06-04T00:40:03;4.83;;;3.77;;
35891;SDS011;21993;42.672;23.296;2023-06-04T00:42:30;4.53;;;3.77;;
35891;SDS011;21993;42.672;23.296;2023-06-04T00:44:56;4.40;;;3.97;;
35891;SDS011;21993;42.672;23.296;2023-06-04T00:47:22;3.77;;;3.43;;
35891;SDS011;21993;42.672;23.296;2023-06-04T00:49:48;4.40;;;3.87;;
35891;SDS011;21993;42.672;23.296;2023-06-04T00:52:14;5.07;;;3.77;;
35891;SDS011;21993;42.672;23.296;2023-06-04T00:54:40;3.93;;;3.30;;
35891;SDS011;21993;42.672;23.296;2023-06-04T00:57:06;4.27;;;3.47;;
35891;SDS011;21993;42.672;23.296;2023-06-04T00:59:34;3.77;;;3.10;;
35891;SDS011;21993;42.672;23.296;2023-06-04T01:02:02;3.50;;;3.20;;
35891;SDS011;21993;42.672;23.296;2023-06-04T01:04:46;4.13;;;3.40;;
35891;SDS011;21993;42.672;23.296;2023-06-04T01:07:11;4.03;;;3.40;;
35891;SDS011;21993;42.672;23.296;2023-06-04T01:09:39;4.83;;;3.50;;
35891;SDS011;21993;42.672;23.296;2023-06-04T01:12:05;6.10;;;3.40;;
35891;SDS011;21993;42.672;23.296;2023-06-04T01:14:32;3.87;;;3.43;;
35891;SDS011;21993;42.672;23.296;2023-06-04T01:17:19;4.40;;;4.00;;
35891;SDS011;21993;42.672;23.296;2023-06-04T01:22:32;4.57;;;3.70;;
35891;SDS011;21993;42.672;23.296;2023-06-04T01:25:03;4.73;;;4.30;;
35891;SDS011;21993;42.672;23.296;2023-06-04T01:27:31;4.20;;;3.80;;
35891;SDS011;21993;42.672;23.296;2023-06-04T01:29:57;4.30;;;3.90;;
35891;SDS011;21993;42.672;23.296;2023-06-04T01:32:23;5.03;;;4.23;;
35891;SDS011;21993;42.672;23.296;2023-06-04T01:34:50;5.17;;;4.07;;
35891;SDS011;21993;42.672;23.296;2023-06-04T01:37:15;6.03;;;4.33;;
35891;SDS011;21993;42.672;23.296;2023-06-04T01:39:42;6.10;;;4.17;;
35891;SDS011;21993;42.672;23.296;2023-06-04T01:42:08;6.50;;;4.50;;
35891;SDS011;21993;42.672;23.296;2023-06-04T01:44:33;7.67;;;4.77;;
35891;SDS011;21993;42.672;23.296;2023-06-04T01:46:59;5.53;;;5.03;;
35891;SDS011;21993;42.672;23.296;2023-06-04T01:49:25;4.70;;;4.30;;
35891;SDS011;21993;42.672;23.296;2023-06-04T01:51:50;6.00;;;5.00;;
35891;SDS011;21993;42.672;23.296;2023-06-04T01:54:16;5.43;;;4.90;;
35891;SDS011;21993;42.672;23.296;2023-06-04T01:56:41;7.90;;;4.97;;
35891;SDS011;21993;42.672;23.296;2023-06-04T01:59:07;5.83;;;4.80;;
35891;SDS011;21993;42.672;23.296;2023-06-04T02:01:32;5.07;;;4.37;;
35891;SDS011;21993;42.672;23.296;2023-06-04T02:03:59;5.93;;;4.83;;
35891;SDS011;21993;42.672;23.296;2023-06-04T02:06:24;5.00;;;3.97;;
35891;SDS011;21993;42.672;23.296;2023-06-04T02:08:55;4.17;;;3.60;;
35891;SDS011;21993;42.672;23.296;2023-06-04T02:11:20;3.43;;;3.13;;
35891;SDS011;21993;42.672;23.296;2023-06-04T02:13:46;4.60;;;3.80;;
35891;SDS011;21993;42.672;23.296;2023-06-04T02:16:11;4.10;;;3.40;;
35891;SDS011;21993;42.672;23.296;2023-06-04T02:18:37;3.70;;;3.23;;
35891;SDS011;21993;42.672;23.296;2023-06-04T02:21:02;3.87;;;3.13;;
35891;SDS011;21993;42.672;23.296;2023-06-04T02:23:28;3.83;;;3.43;;
35891;SDS011;21993;42.672;23.296;2023-06-04T02:25:53;3.60;;;3.20;;
35891;SDS011;21993;42.672;23.296;2023-06-04T02:28:18;3.80;;;3.37;;
35891;SDS011;21993;42.672;23.296;2023-06-04T02:30:44;3.70;;;2.80;;
35891;SDS011;21993;42.672;23.296;2023-06-04T02:33:13;3.70;;;3.40;;
35891;SDS011;21993;42.672;23.296;2023-06-04T02:35:39;3.67;;;3.37;;
35891;SDS011;21993;42.672;23.296;2023-06-04T02:38:06;7.03;;;3.20;;
35891;SDS011;21993;42.672;23.296;2023-06-04T02:40:31;5.47;;;3.03;;
35891;SDS011;21993;42.672;23.296;2023-06-04T02:42:57;3.57;;;3.20;;
35891;SDS011;21993;42.672;23.296;2023-06-04T02:45:22;5.00;;;3.30;;
35891;SDS011;21993;42.672;23.296;2023-06-04T02:47:48;3.67;;;3.07;;
35891;SDS011;21993;42.672;23.296;2023-06-04T02:50:14;4.00;;;3.67;;
35891;SDS011;21993;42.672;23.296;2023-06-04T02:52:42;5.10;;;3.20;;
35891;SDS011;21993;42.672;23.296;2023-06-04T02:55:08;4.70;;;3.27;;
35891;SDS011;21993;42.672;23.296;2023-06-04T02:57:34;4.73;;;3.43;;
35891;SDS011;21993;42.672;23.296;2023-06-04T03:00:00;4.47;;;3.73;;
35891;SDS011;21993;42.672;23.296;2023-06-04T03:02:33;4.47;;;4.00;;
35891;SDS011;21993;42.672;23.296;2023-06-04T03:04:58;4.33;;;3.93;;
35891;SDS011;21993;42.672;23.296;2023-06-04T03:07:23;3.70;;;3.20;;
35891;SDS011;21993;42.672;23.296;2023-06-04T03:09:49;4.50;;;3.77;;
35891;SDS011;21993;42.672;23.296;2023-06-04T03:12:15;7.67;;;3.63;;
35891;SDS011;21993;42.672;23.296;2023-06-04T03:14:40;7.03;;;4.03;;
35891;SDS011;21993;42.672;23.296;2023-06-04T03:17:06;4.33;;;3.93;;
35891;SDS011;21993;42.672;23.296;2023-06-04T03:19:38;4.23;;;3.83;;
35891;SDS011;21993;42.672;23.296;2023-06-04T03:22:05;5.37;;;3.97;;
35891;SDS011;21993;42.672;23.296;2023-06-04T03:24:36;5.13;;;3.43;;
35891;SDS011;21993;42.672;23.296;2023-06-04T03:27:03;4.00;;;3.70;;
35891;SDS011;21993;42.672;23.296;2023-06-04T03:29:30;4.10;;;3.70;;
35891;SDS011;21993;42.672;23.296;2023-06-04T03:31:57;4.40;;;3.90;;
35891;SDS011;21993;42.672;23.296;2023-06-04T03:34:22;3.97;;;3.60;;
35891;SDS011;21993;42.672;23.296;2023-06-04T03:36:51;4.73;;;3.73;;
35891;SDS011;21993;42.672;23.296;2023-06-04T03:39:17;4.10;;;3.43;;
35891;SDS011;21993;42.672;23.296;2023-06-04T03:41:43;5.40;;;3.53;;
35891;SDS011;21993;42.672;23.296;2023-06-04T03:44:09;3.93;;;3.47;;
35891;SDS011;21993;42.672;23.296;2023-06-04T03:46:34;4.47;;;3.97;;
35891;SDS011;21993;42.672;23.296;2023-06-04T03:49:00;4.07;;;3.67;;
35891;SDS011;21993;42.672;23.296;2023-06-04T03:51:26;5.17;;;3.50;;
35891;SDS011;21993;42.672;23.296;2023-06-04T03:53:51;7.67;;;3.50;;
35891;SDS011;21993;42.672;23.296;2023-06-04T03:56:17;5.67;;;4.10;;
35891;SDS011;21993;42.672;23.296;2023-06-04T03:58:42;4.43;;;3.70;;
35891;SDS011;21993;42.672;23.296;2023-06-04T04:01:08;5.10;;;3.73;;
35891;SDS011;21993;42.672;23.296;2023-06-04T04:03:36;4.83;;;3.40;;
35891;SDS011;21993;42.672;23.296;2023-06-04T04:06:02;5.83;;;3.63;;
35891;SDS011;21993;42.672;23.296;2023-06-04T04:08:27;4.50;;;3.50;;
35891;SDS011;21993;42.672;23.296;2023-06-04T04:10:56;4.07;;;3.73;;
35891;SDS011;21993;42.672;23.296;2023-06-04T04:13:22;6.20;;;3.60;;
35891;SDS011;21993;42.672;23.296;2023-06-04T04:15:47;4.57;;;3.60;;
35891;SDS011;21993;42.672;23.296;2023-06-04T04:18:12;4.13;;;3.40;;
35891;SDS011;21993;42.672;23.296;2023-06-04T04:20:38;4.37;;;3.40;;
35891;SDS011;21993;42.672;23.296;2023-06-04T04:23:03;5.03;;;3.77;;
35891;SDS011;21993;42.672;23.296;2023-06-04T04:25:29;5.57;;;4.23;;
35891;SDS011;21993;42.672;23.296;2023-06-04T04:27:57;7.10;;;3.60;;
35891;SDS011;21993;42.672;23.296;2023-06-04T04:30:25;5.63;;;3.80;;
35891;SDS011;21993;42.672;23.296;2023-06-04T04:32:51;4.27;;;3.73;;
35891;SDS011;21993;42.672;23.296;2023-06-04T04:35:16;4.17;;;3.73;;
35891;SDS011;21993;42.672;23.296;2023-06-04T04:37:43;4.30;;;3.60;;
35891;SDS011;21993;42.672;23.296;2023-06-04T04:40:09;4.40;;;3.80;;
35891;SDS011;21993;42.672;23.296;2023-06-04T04:42:36;4.10;;;3.70;;
35891;SDS011;21993;42.672;23.296;2023-06-04T04:45:02;7.47;;;4.10;;
35891;SDS011;21993;42.672;23.296;2023-06-04T04:47:27;4.60;;;4.10;;
35891;SDS011;21993;42.672;23.296;2023-06-04T04:49:53;4.40;;;3.87;;
35891;SDS011;21993;42.672;23.296;2023-06-04T04:52:18;5.93;;;4.13;;
35891;SDS011;21993;42.672;23.296;2023-06-04T04:54:43;5.80;;;4.57;;
35891;SDS011;21993;42.672;23.296;2023-06-04T04:57:09;6.07;;;4.63;;
35891;SDS011;21993;42.672;23.296;2023-06-04T04:59:34;5.90;;;4.33;;
35891;SDS011;21993;42.672;23.296;2023-06-04T05:02:00;4.47;;;4.07;;
35891;SDS011;21993;42.672;23.296;2023-06-04T05:04:26;7.47;;;4.47;;
35891;SDS011;21993;42.672;23.296;2023-06-04T05:06:51;7.07;;;4.47;;
35891;SDS011;21993;42.672;23.296;2023-06-04T05:09:17;5.67;;;4.63;;
35891;SDS011;21993;42.672;23.296;2023-06-04T05:11:43;5.50;;;5.00;;
35891;SDS011;21993;42.672;23.296;2023-06-04T05:14:08;5.17;;;4.60;;
35891;SDS011;21993;42.672;23.296;2023-06-04T05:16:34;5.30;;;4.80;;
35891;SDS011;21993;42.672;23.296;2023-06-04T05:19:00;5.50;;;4.83;;
35891;SDS011;21993;42.672;23.296;2023-06-04T05:21:27;5.63;;;5.00;;
35891;SDS011;21993;42.672;23.296;2023-06-04T05:23:54;7.43;;;5.20;;
35891;SDS011;21993;42.672;23.296;2023-06-04T05:26:19;5.40;;;4.90;;
35891;SDS011;21993;42.672;23.296;2023-06-04T05:28:48;5.67;;;5.17;;
35891;SDS011;21993;42.672;23.296;2023-06-04T05:31:14;6.27;;;5.20;;
35891;SDS011;21993;42.672;23.296;2023-06-04T05:33:40;8.17;;;5.70;;
35891;SDS011;21993;42.672;23.296;2023-06-04T05:36:06;6.10;;;5.10;;
35891;SDS011;21993;42.672;23.296;2023-06-04T05:38:32;7.27;;;4.73;;
35891;SDS011;21993;42.672;23.296;2023-06-04T05:40:57;10.37;;;5.50;;
35891;SDS011;21993;42.672;23.296;2023-06-04T05:43:23;6.90;;;4.90;;
35891;SDS011;21993;42.672;23.296;2023-06-04T05:45:48;7.33;;;5.10;;
35891;SDS011;21993;42.672;23.296;2023-06-04T05:48:14;6.30;;;5.70;;
35891;SDS011;21993;42.672;23.296;2023-06-04T05:50:40;6.87;;;5.63;;
35891;SDS011;21993;42.672;23.296;2023-06-04T05:53:06;7.40;;;5.67;;
35891;SDS011;21993;42.672;23.296;2023-06-04T05:55:31;7.70;;;5.50;;
35891;SDS011;21993;42.672;23.296;2023-06-04T05:57:57;7.50;;;6.17;;
35891;SDS011;21993;42.672;23.296;2023-06-04T06:00:22;9.07;;;6.03;;
35891;SDS011;21993;42.672;23.296;2023-06-04T06:02:51;9.10;;;6.37;;
35891;SDS011;21993;42.672;23.296;2023-06-04T06:05:18;8.77;;;6.50;;
35891;SDS011;21993;42.672;23.296;2023-06-04T06:07:44;10.97;;;6.53;;
35891;SDS011;21993;42.672;23.296;2023-06-04T06:10:10;9.97;;;7.20;;
35891;SDS011;21993;42.672;23.296;2023-06-04T06:12:36;7.90;;;6.60;;
35891;SDS011;21993;42.672;23.296;2023-06-04T06:15:02;7.70;;;6.47;;
35891;SDS011;21993;42.672;23.296;2023-06-04T06:17:27;11.00;;;7.23;;
35891;SDS011;21993;42.672;23.296;2023-06-04T06:19:53;11.10;;;7.17;;
35891;SDS011;21993;42.672;23.296;2023-06-04T06:22:19;7.70;;;6.63;;
35891;SDS011;21993;42.672;23.296;2023-06-04T06:24:45;8.07;;;6.93;;
35891;SDS011;21993;42.672;23.296;2023-06-04T06:27:13;11.13;;;7.07;;
35891;SDS011;21993;42.672;23.296;2023-06-04T06:29:40;12.53;;;7.23;;
35891;SDS011;21993;42.672;23.296;2023-06-04T06:32:05;9.97;;;7.07;;
35891;SDS011;21993;42.672;23.296;2023-06-04T06:34:31;12.67;;;7.10;;
35891;SDS011;21993;42.672;23.296;2023-06-04T06:36:56;10.70;;;7.63;;
35891;SDS011;21993;42.672;23.296;2023-06-04T06:39:22;10.43;;;6.70;;
35891;SDS011;21993;42.672;23.296;2023-06-04T06:41:47;8.37;;;6.40;;
35891;SDS011;21993;42.672;23.296;2023-06-04T06:44:13;9.27;;;6.33;;
35891;SDS011;21993;42.672;23.296;2023-06-04T06:46:38;9.37;;;6.20;;
35891;SDS011;21993;42.672;23.296;2023-06-04T06:49:04;9.00;;;6.30;;
35891;SDS011;21993;42.672;23.296;2023-06-04T06:51:29;6.90;;;5.30;;
35891;SDS011;21993;42.672;23.296;2023-06-04T06:53:55;8.37;;;5.60;;
35891;SDS011;21993;42.672;23.296;2023-06-04T06:56:21;7.83;;;5.97;;
35891;SDS011;21993;42.672;23.296;2023-06-04T06:58:47;8.57;;;6.23;;
35891;SDS011;21993;42.672;23.296;2023-06-04T07:01:13;7.70;;;6.77;;
35891;SDS011;21993;42.672;23.296;2023-06-04T07:03:38;10.27;;;5.97;;
35891;SDS011;21993;42.672;23.296;2023-06-04T07:06:07;8.17;;;6.00;;
35891;SDS011;21993;42.672;23.296;2023-06-04T07:08:33;6.87;;;5.50;;
35891;SDS011;21993;42.672;23.296;2023-06-04T07:10:59;10.57;;;5.53;;
35891;SDS011;21993;42.672;23.296;2023-06-04T07:13:26;14.20;;;7.87;;
35891;SDS011;21993;42.672;23.296;2023-06-04T07:15:51;7.97;;;5.50;;
35891;SDS011;21993;42.672;23.296;2023-06-04T07:18:17;7.70;;;5.73;;
35891;SDS011;21993;42.672;23.296;2023-06-04T07:20:42;9.27;;;6.20;;
35891;SDS011;21993;42.672;23.296;2023-06-04T07:23:07;6.57;;;5.33;;
35891;SDS011;21993;42.672;23.296;2023-06-04T07:25:33;7.67;;;6.00;;
35891;SDS011;21993;42.672;23.296;2023-06-04T07:27:59;10.07;;;6.37;;
35891;SDS011;21993;42.672;23.296;2023-06-04T07:30:25;7.97;;;5.90;;
35891;SDS011;21993;42.672;23.296;2023-06-04T07:32:50;11.33;;;7.30;;
35891;SDS011;21993;42.672;23.296;2023-06-04T07:35:16;7.77;;;6.90;;
35891;SDS011;21993;42.672;23.296;2023-06-04T07:37:42;9.33;;;6.83;;
35891;SDS011;21993;42.672;23.296;2023-06-04T07:40:11;9.07;;;7.03;;
35891;SDS011;21993;42.672;23.296;2023-06-04T07:42:36;8.20;;;6.90;;
35891;SDS011;21993;42.672;23.296;2023-06-04T07:45:02;9.73;;;7.20;;
35891;SDS011;21993;42.672;23.296;2023-06-04T07:47:28;9.63;;;7.57;;
35891;SDS011;21993;42.672;23.296;2023-06-04T07:49:54;11.27;;;6.97;;
35891;SDS011;21993;42.672;23.296;2023-06-04T07:52:19;7.90;;;6.80;;
35891;SDS011;21993;42.672;23.296;2023-06-04T07:54:44;8.57;;;6.57;;
35891;SDS011;21993;42.672;23.296;2023-06-04T07:57:10;9.27;;;7.40;;
35891;SDS011;21993;42.672;23.296;2023-06-04T07:59:35;10.23;;;7.03;;
35891;SDS011;21993;42.672;23.296;2023-06-04T08:02:01;8.70;;;6.90;;
35891;SDS011;21993;42.672;23.296;2023-06-04T08:04:26;9.53;;;7.00;;
35891;SDS011;21993;42.672;23.296;2023-06-04T08:06:52;9.20;;;7.57;;
35891;SDS011;21993;42.672;23.296;2023-06-04T08:09:18;8.60;;;7.40;;
35891;SDS011;21993;42.672;23.296;2023-06-04T08:11:43;9.90;;;6.90;;
35891;SDS011;21993;42.672;23.296;2023-06-04T08:14:13;8.80;;;6.73;;
35891;SDS011;21993;42.672;23.296;2023-06-04T08:16:38;9.60;;;7.20;;
35891;SDS011;21993;42.672;23.296;2023-06-04T08:19:05;10.23;;;7.10;;
35891;SDS011;21993;42.672;23.296;2023-06-04T08:21:32;10.73;;;7.53;;
35891;SDS011;21993;42.672;23.296;2023-06-04T08:23:58;9.93;;;7.17;;
35891;SDS011;21993;42.672;23.296;2023-06-04T08:26:24;11.63;;;7.53;;
35891;SDS011;21993;42.672;23.296;2023-06-04T08:28:52;13.50;;;8.37;;
35891;SDS011;21993;42.672;23.296;2023-06-04T08:31:17;14.03;;;8.07;;
35891;SDS011;21993;42.672;23.296;2023-06-04T08:33:46;9.30;;;8.10;;
35891;SDS011;21993;42.672;23.296;2023-06-04T08:36:12;10.70;;;8.30;;
35891;SDS011;21993;42.672;23.296;2023-06-04T08:38:38;14.97;;;9.47;;
35891;SDS011;21993;42.672;23.296;2023-06-04T08:41:12;12.87;;;9.10;;
35891;SDS011;21993;42.672;23.296;2023-06-04T08:43:40;16.10;;;9.33;;
35891;SDS011;21993;42.672;23.296;2023-06-04T08:46:08;12.10;;;9.27;;
35891;SDS011;21993;42.672;23.296;2023-06-04T08:48:34;15.77;;;8.93;;
35891;SDS011;21993;42.672;23.296;2023-06-04T08:51:02;13.70;;;8.63;;
35891;SDS011;21993;42.672;23.296;2023-06-04T08:53:31;13.13;;;8.67;;
35891;SDS011;21993;42.672;23.296;2023-06-04T08:55:56;11.43;;;8.37;;
35891;SDS011;21993;42.672;23.296;2023-06-04T08:58:22;11.97;;;8.50;;
35891;SDS011;21993;42.672;23.296;2023-06-04T09:00:49;11.33;;;8.63;;
35891;SDS011;21993;42.672;23.296;2023-06-04T09:03:14;10.77;;;7.90;;
35891;SDS011;21993;42.672;23.296;2023-06-04T09:05:40;13.13;;;8.40;;
35891;SDS011;21993;42.672;23.296;2023-06-04T09:08:12;14.67;;;7.80;;
35891;SDS011;21993;42.672;23.296;2023-06-04T09:10:39;12.43;;;8.00;;
35891;SDS011;21993;42.672;23.296;2023-06-04T09:13:06;11.23;;;8.13;;
35891;SDS011;21993;42.672;23.296;2023-06-04T09:15:33;11.77;;;8.37;;
35891;SDS011;21993;42.672;23.296;2023-06-04T09:17:59;11.60;;;8.53;;
35891;SDS011;21993;42.672;23.296;2023-06-04T09:20:24;9.33;;;7.60;;
35891;SDS011;21993;42.672;23.296;2023-06-04T09:22:50;8.80;;;7.10;;
35891;SDS011;21993;42.672;23.296;2023-06-04T09:25:20;11.93;;;7.80;;
35891;SDS011;21993;42.672;23.296;2023-06-04T09:27:46;11.17;;;9.10;;
35891;SDS011;21993;42.672;23.296;2023-06-04T09:30:12;14.07;;;9.43;;
35891;SDS011;21993;42.672;23.296;2023-06-04T09:32:38;10.67;;;8.93;;
35891;SDS011;21993;42.672;23.296;2023-06-04T09:37:37;13.80;;;10.60;;
35891;SDS011;21993;42.672;23.296;2023-06-04T09:40:04;11.30;;;9.17;;
35891;SDS011;21993;42.672;23.296;2023-06-04T09:42:30;9.93;;;8.33;;
35891;SDS011;21993;42.672;23.296;2023-06-04T09:45:07;11.73;;;9.13;;
35891;SDS011;21993;42.672;23.296;2023-06-04T09:47:42;10.87;;;8.87;;
35891;SDS011;21993;42.672;23.296;2023-06-04T09:50:10;14.00;;;7.93;;
35891;SDS011;21993;42.672;23.296;2023-06-04T09:52:37;12.87;;;8.30;;
35891;SDS011;21993;42.672;23.296;2023-06-04T09:55:14;12.53;;;8.73;;
35891;SDS011;21993;42.672;23.296;2023-06-04T09:57:44;15.13;;;9.57;;
35891;SDS011;21993;42.672;23.296;2023-06-04T10:00:22;11.77;;;9.73;;
35891;SDS011;21993;42.672;23.296;2023-06-04T10:02:49;12.87;;;10.07;;
35891;SDS011;21993;42.672;23.296;2023-06-04T10:05:20;14.27;;;10.17;;
35891;SDS011;21993;42.672;23.296;2023-06-04T10:07:47;21.87;;;10.30;;
35891;SDS011;21993;42.672;23.296;2023-06-04T10:10:17;15.70;;;9.77;;
35891;SDS011;21993;42.672;23.296;2023-06-04T10:12:50;13.47;;;8.87;;
35891;SDS011;21993;42.672;23.296;2023-06-04T10:15:24;12.57;;;8.43;;
35891;SDS011;21993;42.672;23.296;2023-06-04T10:17:50;11.87;;;8.53;;
35891;SDS011;21993;42.672;23.296;2023-06-04T10:20:18;9.37;;;7.40;;
35891;SDS011;21993;42.672;23.296;2023-06-04T10:22:45;8.93;;;7.27;;
35891;SDS011;21993;42.672;23.296;2023-06-04T10:25:12;12.10;;;8.50;;
35891;SDS011;21993;42.672;23.296;2023-06-04T10:27:39;10.67;;;7.57;;
35891;SDS011;21993;42.672;23.296;2023-06-04T10:30:05;11.83;;;7.87;;
35891;SDS011;21993;42.672;23.296;2023-06-04T10:32:31;8.60;;;7.70;;
35891;SDS011;21993;42.672;23.296;2023-06-04T10:34:57;10.20;;;7.77;;
35891;SDS011;21993;42.672;23.296;2023-06-04T10:37:23;9.77;;;8.07;;
35891;SDS011;21993;42.672;23.296;2023-06-04T10:39:58;14.33;;;7.77;;
35891;SDS011;21993;42.672;23.296;2023-06-04T10:42:24;11.80;;;8.27;;
35891;SDS011;21993;42.672;23.296;2023-06-04T10:44:51;11.67;;;7.63;;
35891;SDS011;21993;42.672;23.296;2023-06-04T10:47:21;14.57;;;7.63;;
35891;SDS011;21993;42.672;23.296;2023-06-04T10:49:48;10.33;;;8.03;;
35891;SDS011;21993;42.672;23.296;2023-06-04T10:52:18;11.27;;;7.70;;
35891;SDS011;21993;42.672;23.296;2023-06-04T10:54:44;9.87;;;7.33;;
35891;SDS011;21993;42.672;23.296;2023-06-04T10:57:15;8.83;;;7.90;;
35891;SDS011;21993;42.672;23.296;2023-06-04T10:59:53;9.93;;;7.23;;
35891;SDS011;21993;42.672;23.296;2023-06-04T11:02:19;10.33;;;7.70;;
35891;SDS011;21993;42.672;23.296;2023-06-04T11:04:45;8.57;;;7.70;;
35891;SDS011;21993;42.672;23.296;2023-06-04T11:07:11;9.00;;;7.30;;
35891;SDS011;21993;42.672;23.296;2023-06-04T11:09:49;9.20;;;7.70;;
35891;SDS011;21993;42.672;23.296;2023-06-04T11:12:15;11.03;;;7.70;;
35891;SDS011;21993;42.672;23.296;2023-06-04T11:14:41;12.87;;;8.27;;
35891;SDS011;21993;42.672;23.296;2023-06-04T11:17:18;9.53;;;7.87;;
35891;SDS011;21993;42.672;23.296;2023-06-04T11:19:44;9.63;;;7.43;;
35891;SDS011;21993;42.672;23.296;2023-06-04T11:22:12;10.37;;;7.57;;
35891;SDS011;21993;42.672;23.296;2023-06-04T11:24:38;11.07;;;8.00;;
35891;SDS011;21993;42.672;23.296;2023-06-04T11:27:03;10.73;;;8.30;;
35891;SDS011;21993;42.672;23.296;2023-06-04T11:29:29;8.67;;;7.50;;
35891;SDS011;21993;42.672;23.296;2023-06-04T11:31:54;9.30;;;8.03;;
35891;SDS011;21993;42.672;23.296;2023-06-04T11:34:24;10.20;;;8.17;;
35891;SDS011;21993;42.672;23.296;2023-06-04T11:36:53;11.47;;;8.57;;
35891;SDS011;21993;42.672;23.296;2023-06-04T11:39:19;10.60;;;8.93;;
35891;SDS011;21993;42.672;23.296;2023-06-04T11:41:45;10.10;;;9.03;;
35891;SDS011;21993;42.672;23.296;2023-06-04T11:44:11;9.47;;;8.47;;
35891;SDS011;21993;42.672;23.296;2023-06-04T11:46:41;11.00;;;8.77;;
35891;SDS011;21993;42.672;23.296;2023-06-04T11:49:16;9.70;;;8.70;;
35891;SDS011;21993;42.672;23.296;2023-06-04T11:51:49;12.53;;;8.80;;
35891;SDS011;21993;42.672;23.296;2023-06-04T11:54:16;10.20;;;8.13;;
35891;SDS011;21993;42.672;23.296;2023-06-04T11:56:43;10.13;;;8.03;;
35891;SDS011;21993;42.672;23.296;2023-06-04T11:59:12;9.37;;;8.10;;
35891;SDS011;21993;42.672;23.296;2023-06-04T12:01:40;12.73;;;8.37;;
35891;SDS011;21993;42.672;23.296;2023-06-04T12:04:16;10.63;;;8.63;;
35891;SDS011;21993;42.672;23.296;2023-06-04T12:06:52;9.73;;;8.73;;
35891;SDS011;21993;42.672;23.296;2023-06-04T12:09:26;9.60;;;8.47;;
35891;SDS011;21993;42.672;23.296;2023-06-04T12:12:11;10.20;;;9.20;;
35891;SDS011;21993;42.672;23.296;2023-06-04T12:14:37;11.87;;;8.83;;
35891;SDS011;21993;42.672;23.296;2023-06-04T12:17:06;10.87;;;9.43;;
35891;SDS011;21993;42.672;23.296;2023-06-04T12:19:33;10.60;;;9.50;;
35891;SDS011;21993;42.672;23.296;2023-06-04T12:22:09;12.53;;;10.10;;
35891;SDS011;21993;42.672;23.296;2023-06-04T12:24:45;12.23;;;9.57;;
35891;SDS011;21993;42.672;23.296;2023-06-04T12:27:12;11.80;;;10.13;;
35891;SDS011;21993;42.672;23.296;2023-06-04T12:29:38;12.00;;;9.80;;
35891;SDS011;21993;42.672;23.296;2023-06-04T12:34:31;11.73;;;9.80;;
35891;SDS011;21993;42.672;23.296;2023-06-04T12:36:57;10.83;;;9.57;;
35891;SDS011;21993;42.672;23.296;2023-06-04T12:39:22;12.50;;;10.13;;
35891;SDS011;21993;42.672;23.296;2023-06-04T12:41:48;10.53;;;9.50;;
35891;SDS011;21993;42.672;23.296;2023-06-04T12:44:13;11.40;;;10.13;;
35891;SDS011;21993;42.672;23.296;2023-06-04T12:46:39;10.37;;;9.37;;
35891;SDS011;21993;42.672;23.296;2023-06-04T12:49:04;12.67;;;10.13;;
35891;SDS011;21993;42.672;23.296;2023-06-04T12:51:30;10.80;;;9.70;;
35891;SDS011;21993;42.672;23.296;2023-06-04T12:53:56;11.30;;;10.13;;
35891;SDS011;21993;42.672;23.296;2023-06-04T12:56:22;11.80;;;9.80;;
35891;SDS011;21993;42.672;23.296;2023-06-04T12:58:48;10.90;;;9.80;;
35891;SDS011;21993;42.672;23.296;2023-06-04T13:01:14;16.53;;;10.73;;
35891;SDS011;21993;42.672;23.296;2023-06-04T13:03:40;10.80;;;9.17;;
35891;SDS011;21993;42.672;23.296;2023-06-04T13:06:06;14.13;;;11.33;;
35891;SDS011;21993;42.672;23.296;2023-06-04T13:08:32;13.27;;;10.40;;
35891;SDS011;21993;42.672;23.296;2023-06-04T13:10:57;12.77;;;11.00;;
35891;SDS011;21993;42.672;23.296;2023-06-04T13:13:23;12.43;;;10.07;;
35891;SDS011;21993;42.672;23.296;2023-06-04T13:15:49;12.80;;;10.77;;
35891;SDS011;21993;42.672;23.296;2023-06-04T13:18:14;12.57;;;11.33;;
35891;SDS011;21993;42.672;23.296;2023-06-04T13:20:40;11.60;;;10.43;;
35891;SDS011;21993;42.672;23.296;2023-06-04T13:23:06;12.53;;;11.17;;
35891;SDS011;21993;42.672;23.296;2023-06-04T13:25:32;11.60;;;10.40;;
35891;SDS011;21993;42.672;23.296;2023-06-04T13:28:01;11.27;;;10.07;;
35891;SDS011;21993;42.672;23.296;2023-06-04T13:30:28;16.40;;;11.93;;
35891;SDS011;21993;42.672;23.296;2023-06-04T13:32:53;9.77;;;8.77;;
35891;SDS011;21993;42.672;23.296;2023-06-04T13:35:19;8.87;;;7.97;;
35891;SDS011;21993;42.672;23.296;2023-06-04T13:37:45;9.83;;;8.53;;
35891;SDS011;21993;42.672;23.296;2023-06-04T13:40:10;10.00;;;7.93;;
35891;SDS011;21993;42.672;23.296;2023-06-04T13:42:36;9.73;;;7.90;;
35891;SDS011;21993;42.672;23.296;2023-06-04T13:45:02;12.47;;;8.00;;
35891;SDS011;21993;42.672;23.296;2023-06-04T13:47:28;10.60;;;7.63;;
35891;SDS011;21993;42.672;23.296;2023-06-04T13:49:53;8.40;;;7.60;;
35891;SDS011;21993;42.672;23.296;2023-06-04T13:52:19;10.03;;;7.07;;
35891;SDS011;21993;42.672;23.296;2023-06-04T13:54:44;9.93;;;8.07;;
35891;SDS011;21993;42.672;23.296;2023-06-04T13:57:10;11.33;;;8.33;;
35891;SDS011;21993;42.672;23.296;2023-06-04T13:59:38;8.97;;;7.23;;
35891;SDS011;21993;42.672;23.296;2023-06-04T14:02:04;12.13;;;8.80;;
35891;SDS011;21993;42.672;23.296;2023-06-04T14:04:30;13.03;;;8.70;;
35891;SDS011;21993;42.672;23.296;2023-06-04T14:06:55;9.57;;;8.20;;
35891;SDS011;21993;42.672;23.296;2023-06-04T14:09:21;9.60;;;8.60;;
35891;SDS011;21993;42.672;23.296;2023-06-04T14:11:46;8.97;;;8.03;;
35891;SDS011;21993;42.672;23.296;2023-06-04T14:14:19;7.67;;;6.87;;
35891;SDS011;21993;42.672;23.296;2023-06-04T14:16:46;9.57;;;7.80;;
35891;SDS011;21993;42.672;23.296;2023-06-04T14:19:12;9.13;;;7.67;;
35891;SDS011;21993;42.672;23.296;2023-06-04T14:21:38;8.20;;;7.37;;
35891;SDS011;21993;42.672;23.296;2023-06-04T14:24:04;12.07;;;8.23;;
35891;SDS011;21993;42.672;23.296;2023-06-04T14:26:31;9.13;;;8.10;;
35891;SDS011;21993;42.672;23.296;2023-06-04T14:28:56;8.00;;;7.20;;
35891;SDS011;21993;42.672;23.296;2023-06-04T14:31:22;8.30;;;7.43;;
35891;SDS011;21993;42.672;23.296;2023-06-04T14:33:48;8.43;;;7.63;;